METAR Data
IDs: Format: Raw Decoded Include TAF

Data at: 0003 UTC 26 Oct 2021

PAOM 252353Z 29013KT 10SM SCT034 BKN043 M03/M08 A2937 RMK AO2 SLP946 60000 T10281078 11028 21056 51006
PAOM 252253Z 29012KT 10SM OVC047 M03/M08 A2936 RMK AO2 SNB30E40 SLP944 P0000 T10281078
PAOM 252153Z 29012KT 10SM SCT042 BKN049 M03/M07 A2936 RMK AO2 SNB01E40 SLP944 P0000 T10281072
PAOM 252140Z 29011KT 9SM SCT022 OVC048 M03/M06 A2936 RMK AO2 SNB01E40 P0000 T10331061
PAOM 252123Z 29012G23KT 3SM R28/3000VP6000FT -SN BR BKN021 BKN037 OVC050 M03/M06 A2936 RMK AO2 SNB01 P0000 T10331061
PAOM 252121Z 29015G23KT 3/4SM R28/3000VP6000FT -SN BR BKN022 BKN033 OVC050 M03/M06 A2936 RMK AO2 SNB01 P0000 T10331061
PAOM 252053Z 28011KT 10SM BKN045 M03/M07 A2935 RMK AO2 SLP940 60000 T10281072 53008
PAOM 251953Z 30008KT 10SM SCT033 BKN044 M04/M08 A2934 RMK AO2 SNB27E39 SLP937 P0000 T10391078
PAOM 251853Z 28009KT 9SM SCT028 M04/M08 A2933 RMK AO2 SLP934 T10441078
PAOM 251753Z 28010KT 10SM SCT026 M04/M07 A2933 RMK AO2 SLP932 60000 T10391072 11022 21044 53001
PAOM 251707Z 28011KT 10SM FEW025 M04/M07 A2933 RMK AO2 T10391072
PAOM 251653Z 28012KT 10SM BKN027 M04/M07 A2933 RMK AO2 SNE1559B09E43 SLP931 P0000 T10391072
PAOM 251638Z 28013KT 9SM -SN FEW021 BKN026 M04/M07 A2932 RMK AO2 SNE1559B09 P0000 T10391067
PAOM 251601Z 27012KT 9SM SCT027 BKN040 M04/M06 A2932 RMK AO2 SNE1559 P0000 T10391061
PAOM 251553Z 29011KT 5SM -SN BR BKN029 OVC039 M03/M06 A2932 RMK AO2 SNB30 CIG 019 NE SLP929 P0000 T10331056
PAOM 251547Z 30011KT 3SM -SN BR BKN030 OVC040 M03/M06 A2932 RMK AO2 SNB30 CIG 021 NE P0000
PAOM 251538Z 29012G19KT 2 1/2SM -SN BKN027 BKN035 OVC043 M03/M06 A2933 RMK AO2 SNB30 P0000 T10331061
PAOM 251453Z AUTO 29010KT 10SM FEW031 M03/M07 A2932 RMK AO2 SLP930 60000 T10331072 58001 TSNO
PAOM 251353Z AUTO 28011KT 10SM FEW032 M03/M07 A2933 RMK AO2 SNB11E23 SLP932 P0000 T10331067 TSNO
PAOM 251253Z AUTO 29008KT 9SM FEW022 BKN033 M03/M06 A2933 RMK AO2 SNB35E48 SLP931 P0000 T10281056 TSNO
PAOM 251153Z AUTO 30008KT 10SM BKN032 M02/M06 A2933 RMK AO2 SLP931 70002 T10221061 11011 21033 58004 TSNO
PAOM 251116Z AUTO 30009KT 10SM SCT028 SCT035 M03/M07 A2933 RMK AO2 T10281067 TSNO
PAOM 251053Z AUTO 30010KT 10SM OVC029 M02/M06 A2933 RMK AO2 SLP933 T10221061 TSNO
PAOM 251016Z AUTO 28013KT 10SM OVC031 M02/M06 A2934 RMK AO2 T10171056 TSNO
PAOM 250953Z AUTO 28014KT 10SM OVC029 M02/M06 A2934 RMK AO2 SLP936 T10171056 TSNO
PAOM 250910Z AUTO 28016KT 10SM OVC028 M02/M06 A2934 RMK AO2 T10171056 TSNO
PAOM 250901Z AUTO 27015KT 10SM OVC030 M02/M06 A2934 RMK AO2 T10171056 TSNO
PAOM 250853Z AUTO 27015KT 10SM OVC029 M02/M06 A2934 RMK AO2 SLP935 T10171056 400061050 51007 TSNO
PAOM 250843Z AUTO 28015KT 10SM OVC030 M02/M06 A2934 RMK AO2 T10171056 TSNO
PAOM 250807Z AUTO 28014KT 10SM BKN029 M02/M05 A2934 RMK AO2 T10171050 TSNO
PAOM 250753Z AUTO 28013KT 10SM BKN030 M02/M05 A2933 RMK AO2 SLP934 T10221050 TSNO
PAOM 250729Z AUTO 28012KT 10SM BKN028 OVC100 M02/M04 A2933 RMK AO2 T10221044 TSNO
PAOM 250653Z 28013KT 10SM SCT028 OVC100 M02/M04 A2933 RMK AO2 SLP931 T10221044
PAOM 250553Z 29014KT 9SM FEW030 FEW035 OVC110 M01/M04 A2932 RMK AO2 SNE51 SLP929 P0000 60002 T10111039 10006 21011 56001
PAOM 250453Z 29010KT 7SM -SN BKN048 OVC110 M01/M03 A2932 RMK AO2 SNB10 SLP929 P0000 T10111033
PAOM 250353Z 28010KT 8SM BKN060 OVC120 M01/M03 A2932 RMK AO2 SNE0254 SLP928 P0000 T10111028
PAOM 250253Z 29008KT 8SM -SN FEW013 OVC050 M01/M02 A2932 RMK AO2 SLP930 P0000 60002 T10061022 56005
PAOM 250203Z 28011KT 2SM -SN BR FEW012 BKN017 OVC024 M01/M02 A2933 RMK AO2 P0000 T10061022
PAOM 250153Z 28009KT 1SM R28/4000VP6000FT -SN BR BKN013 OVC024 M01/M02 A2933 RMK AO2 SLP931 P0002 T10061017
PAOM 250131Z 29015KT 1/2SM R28/2200V4000FT SN FZFG VV014 M01/M02 A2933 RMK AO2 P0000 T10061017
PAOM 250122Z 28015KT 3/4SM R28/3500VP6000FT -SN BR BKN021 BKN032 OVC060 M01/M02 A2933 RMK AO2 CIG 016 NE P0000 T10061022
PAOM 250116Z 28013KT 3SM R28/6000VP6000FT -SN BR FEW011 BKN019 OVC047 M01/M02 A2933 RMK AO2 CIG 014 NE P0000 T10061017
PAOM 250101Z 28014KT 1 1/2SM R28/3500VP6000FT -SN BR BKN016 OVC026 M01/M02 A2933 RMK AO2 P0000 T10061017
PAOM 250053Z 28012KT 1/2SM R28/3000V5500FT SN FZFG BKN017 OVC070 M01/M02 A2933 RMK AO2 SNB36 SLP932 P0000 T10061017
PAOM 250047Z 28015KT 3/4SM R28/3500VP6000FT -SN BR FEW015 BKN024 OVC110 00/M02 A2933 RMK AO2 VIS 1/4V5 SNB36 P0000
PAOM 250042Z 28016KT 4SM R28/4500VP6000FT -SN BR BKN020 BKN070 OVC110 00/M02 A2933 RMK AO2 SNB36 P0000 T00001022
PAOM 242353Z 28015KT 9SM FEW013 SCT019 OVC110 00/M02 A2934 RMK AO2 SNB04E52 CIG 015 NE SLP935 P0000 60000 T00001022 10006 21028 56004
PAOM 242325Z 28014KT 5SM -SN BR SCT008 BKN020 OVC100 00/M02 A2934 RMK AO2 SNB04 P0000 T00001017
PAOM 242314Z 28014KT 3SM -SN BR SCT010 BKN026 OVC100 00/M02 A2934 RMK AO2 SNB04 P0000 T00001017
PAOM 242253Z 28012KT 10SM FEW014 BKN048 OVC100 01/M02 A2934 RMK AO2 SNB21E34 SLP936 P0000 T00061022
PAOM 242202Z 28006KT 10SM FEW009 BKN021 OVC050 01/M02 A2935 RMK AO2 T00061017
PAOM 242153Z 29004KT 10SM SCT011 BKN039 OVC100 01/M02 A2935 RMK AO2 SNB2056E08 SLP939 P0000 T00061022
PAOM 242117Z 27005KT 10SM FEW020 SCT029 OVC100 00/M02 A2935 RMK AO2 SNB2056E08 P0000 T00001022
PAOM 242053Z 00000KT 8SM SCT012 BKN021 OVC033 00/M02 A2935 RMK AO2 SLP938 T00001022 56004
PAOM 242045Z 00000KT 10SM SCT012 BKN022 OVC075 00/M02 A2935 RMK AO2 T00001022
PAOM 241953Z 27003KT 10SM BKN070 M01/M03 A2935 RMK AO2 SLP938 T10111033
PAOM 241853Z 28004KT 10SM OVC065 M02/M04 A2935 RMK AO2 SLP941 T10171039
PAOM 241753Z 00000KT 10SM SCT048 OVC060 M03/M04 A2936 RMK AO2 SLP942 T10281044 11028 21039 58004
PAOM 241729Z 00000KT 10SM FEW028 BKN045 OVC055 M03/M05 A2936 RMK AO2 T10281050
PAOM 241720Z 00000KT 10SM BKN028 BKN040 OVC055 M03/M05 A2936 RMK AO2 T10281050
PAOM 241712Z 00000KT 10SM SCT028 OVC055 M03/M05 A2937 RMK AO2 CIG 029 NE T10281050
PAOM 241703Z 32003KT 10SM BKN029 OVC055 M03/M05 A2937 RMK AO2 T10281050
PAOM 241653Z 32003KT 10SM SCT027 OVC050 M03/M05 A2937 RMK AO2 CIG 029 NE SLP946 T10281050
PAOM 241646Z 00000KT 10SM BKN027 OVC050 M03/M05 A2937 RMK AO2 T10281050
PAOM 241553Z AUTO 36003KT 10SM OVC049 M03/M05 A2937 RMK AO2 SLP946 T10281050 TSNO
PAOM 241453Z AUTO 00000KT 10SM OVC045 M03/M05 A2937 RMK AO2 SLP946 T10281050 55000 TSNO
PAOM 241353Z AUTO 00000KT 10SM OVC046 M03/M06 A2937 RMK AO2 SLP946 T10331056 TSNO
PAOM 241253Z AUTO 35003KT 10SM OVC046 M03/M06 A2937 RMK AO2 SLP946 T10331061 TSNO